createdAt,value
2022-11-23T00:01:13.636Z,97602.59
2022-11-23T00:03:43.331Z,97610.91
2022-11-23T00:06:11.445Z,97613.59
2022-11-23T00:08:40.244Z,97605.06
2022-11-23T00:11:08.522Z,97594.47
2022-11-23T00:13:36.930Z,97593.69
2022-11-23T00:16:07.033Z,97608.78
2022-11-23T00:18:35.381Z,97607.69
2022-11-23T00:21:09.237Z,97608.00
2022-11-23T00:23:37.943Z,97614.53
2022-11-23T00:26:06.818Z,97610.16
2022-11-23T00:28:38.981Z,97612.16
2022-11-23T00:31:07.555Z,97601.47
2022-11-23T00:33:36.058Z,97609.84
2022-11-23T00:36:05.649Z,97612.00
2022-11-23T00:38:35.446Z,97604.53
2022-11-23T00:41:06.373Z,97582.69
2022-11-23T00:43:35.194Z,97605.78
2022-11-23T00:46:08.654Z,97604.00
2022-11-23T00:48:36.754Z,97614.31
2022-11-23T00:51:05.232Z,97606.63
2022-11-23T00:53:34.299Z,97606.47
2022-11-23T00:56:02.554Z,97604.09
2022-11-23T00:58:31.022Z,97609.94
2022-11-23T01:01:03.079Z,97606.16
2022-11-23T01:03:32.317Z,97614.16
2022-11-23T01:06:04.427Z,97613.31
2022-11-23T01:08:34.628Z,97607.09
2022-11-23T01:11:03.396Z,97621.94
2022-11-23T01:13:32.134Z,97616.31
2022-11-23T01:16:00.168Z,97619.47
2022-11-23T01:18:28.029Z,97623.63
2022-11-23T01:20:56.242Z,97627.84
2022-11-23T01:23:23.865Z,97625.94
2022-11-23T01:25:56.821Z,97624.94
2022-11-23T01:28:25.680Z,97625.63
2022-11-23T01:30:53.981Z,97635.84
2022-11-23T01:33:22.309Z,97635.09
2022-11-23T01:35:50.623Z,97639.25
2022-11-23T01:38:19.247Z,97634.56
2022-11-23T01:40:47.198Z,97625.53
2022-11-23T01:43:17.975Z,97630.25
2022-11-23T01:45:58.576Z,97608.16
2022-11-23T01:48:30.998Z,97634.09
2022-11-23T01:51:00.706Z,97644.19
2022-11-23T01:53:29.582Z,97612.56
2022-11-23T01:56:00.480Z,97617.56
2022-11-23T01:58:32.221Z,97638.56
2022-11-23T02:01:00.331Z,97643.19
2022-11-23T02:03:29.483Z,97644.75
2022-11-23T02:06:02.267Z,97633.84
2022-11-23T02:08:30.792Z,97648.69
2022-11-23T02:10:59.720Z,97634.78
2022-11-23T02:13:30.465Z,97641.53
2022-11-23T02:15:59.994Z,97637.91
2022-11-23T02:18:31.133Z,97635.53
2022-11-23T02:21:00.101Z,97639.94
2022-11-23T02:23:35.174Z,97637.22
2022-11-23T02:26:08.157Z,97638.84
2022-11-23T02:28:40.288Z,97635.84
2022-11-23T02:31:08.647Z,97644.16
2022-11-23T02:33:38.812Z,97640.25
2022-11-23T02:36:29.558Z,97637.47
2022-11-23T02:38:57.687Z,97641.47
2022-11-23T02:41:26.631Z,97630.91
2022-11-23T02:43:56.215Z,97645.09
2022-11-23T02:46:23.857Z,97635.84
2022-11-23T02:48:51.416Z,97624.69
2022-11-23T02:51:19.015Z,97631.53
2022-11-23T02:53:46.543Z,97631.84
2022-11-23T02:56:14.240Z,97634.13
2022-11-23T02:58:43.144Z,97632.16
2022-11-23T03:01:11.041Z,97635.22
2022-11-23T03:03:38.588Z,97630.59
2022-11-23T03:06:06.329Z,97636.81
2022-11-23T03:08:33.893Z,97627.91
2022-11-23T03:11:01.940Z,97626.16
2022-11-23T03:13:29.583Z,97629.13
2022-11-23T03:15:58.475Z,97629.97
2022-11-23T03:18:26.637Z,97636.13
2022-11-23T03:20:54.235Z,97632.75
2022-11-23T03:23:21.796Z,97636.47
2022-11-23T03:25:56.396Z,97632.31
2022-11-23T03:28:24.144Z,97616.06
2022-11-23T03:30:52.401Z,97628.59
2022-11-23T03:33:21.822Z,97633.44
2022-11-23T03:35:49.419Z,97627.75
2022-11-23T03:38:17.187Z,97632.50
2022-11-23T03:40:45.544Z,97633.06
2022-11-23T03:43:13.228Z,97645.94
2022-11-23T03:45:41.080Z,97640.94
2022-11-23T03:48:08.820Z,97636.84
2022-11-23T03:50:37.765Z,97648.16
2022-11-23T03:53:06.093Z,97646.47
2022-11-23T03:55:33.803Z,97648.50
2022-11-23T03:58:01.806Z,97645.47
2022-11-23T04:00:30.048Z,97637.63
2022-11-23T04:02:57.853Z,97646.16
2022-11-23T04:05:27.767Z,97650.88
2022-11-23T04:07:56.737Z,97650.63
2022-11-23T04:10:24.345Z,97654.34
2022-11-23T04:12:52.873Z,97653.41
2022-11-23T04:15:20.932Z,97649.03
2022-11-23T04:17:48.717Z,97654.66
2022-11-23T04:20:16.425Z,97651.19
2022-11-23T04:22:44.019Z,97643.50
2022-11-23T04:25:13.131Z,97641.63
2022-11-23T04:27:40.688Z,97648.50
2022-11-23T04:30:09.840Z,97640.09
2022-11-23T04:32:37.381Z,97648.56
2022-11-23T04:35:05.561Z,97645.25
2022-11-23T04:37:33.116Z,97640.19
2022-11-23T04:40:00.736Z,97644.78
2022-11-23T04:42:29.673Z,97648.34
2022-11-23T04:44:58.321Z,97652.09
2022-11-23T04:47:26.205Z,97644.94
2022-11-23T04:49:53.777Z,97646.25
2022-11-23T04:52:21.328Z,97653.34
2022-11-23T04:54:48.913Z,97647.88
2022-11-23T04:57:16.478Z,97638.19
2022-11-23T04:59:45.364Z,97648.97
2022-11-23T05:02:12.872Z,97649.03
2022-11-23T05:04:40.460Z,97644.03
2022-11-23T05:07:08.130Z,97633.81
2022-11-23T05:09:35.777Z,97648.50
2022-11-23T05:12:03.369Z,97644.03
2022-11-23T05:14:31.767Z,97646.66
2022-11-23T05:17:00.686Z,97639.03
2022-11-23T05:19:28.307Z,97651.66
2022-11-23T05:21:55.884Z,97649.28
2022-11-23T05:24:23.450Z,97644.81
2022-11-23T05:26:56.065Z,97651.81
2022-11-23T05:29:23.991Z,97652.81
2022-11-23T05:31:51.535Z,97649.97
2022-11-23T05:34:20.454Z,97655.66
2022-11-23T05:36:48.049Z,97655.03
2022-11-23T05:39:15.596Z,97661.50
2022-11-23T05:41:43.189Z,97656.03
2022-11-23T05:44:10.959Z,97650.81
2022-11-23T05:46:38.517Z,97656.13
2022-11-23T05:49:06.151Z,97658.59
2022-11-23T05:51:35.100Z,97659.44
2022-11-23T05:54:03.050Z,97660.44
2022-11-23T05:56:32.076Z,97666.34
2022-11-23T05:59:02.331Z,97664.91
2022-11-23T06:01:29.998Z,97665.59
2022-11-23T06:03:57.688Z,97670.97
2022-11-23T06:06:25.374Z,97667.34
2022-11-23T06:08:54.312Z,97668.28
2022-11-23T06:11:22.715Z,97673.34
2022-11-23T06:13:50.576Z,97671.34
2022-11-23T06:16:18.162Z,97673.34
2022-11-23T06:18:45.715Z,97663.97
2022-11-23T06:21:13.333Z,97663.81
2022-11-23T06:23:40.942Z,97666.44
2022-11-23T06:26:09.920Z,97671.97
2022-11-23T06:28:37.524Z,97675.44
2022-11-23T06:31:06.589Z,97672.50
2022-11-23T06:33:34.215Z,97683.81
2022-11-23T06:36:03.470Z,97677.81
2022-11-23T06:38:31.277Z,97673.13
2022-11-23T06:40:59.759Z,97680.97
2022-11-23T06:43:29.145Z,97678.75
2022-11-23T06:45:57.164Z,97681.44
2022-11-23T06:48:25.200Z,97683.97
2022-11-23T06:50:52.814Z,97684.81
2022-11-23T06:53:20.425Z,97691.81
2022-11-23T06:55:47.999Z,97698.75
2022-11-23T06:58:15.610Z,97694.22
2022-11-23T07:00:44.565Z,97707.59
2022-11-23T07:03:20.355Z,97704.22
2022-11-23T07:05:48.018Z,97702.16
2022-11-23T07:08:15.763Z,97707.91
2022-11-23T07:10:43.442Z,97699.53
2022-11-23T07:13:11.973Z,97698.13
2022-11-23T07:15:39.756Z,97705.69
2022-11-23T07:18:10.287Z,97711.38
2022-11-23T07:20:38.774Z,97707.75
2022-11-23T07:23:07.887Z,97711.75
2022-11-23T07:25:36.738Z,97710.47
2022-11-23T07:28:05.993Z,97717.63
2022-11-23T07:30:34.751Z,97708.47
2022-11-23T07:33:03.383Z,97708.22
2022-11-23T07:35:32.737Z,97712.84
2022-11-23T07:38:00.755Z,97715.38
2022-11-23T07:40:28.348Z,97720.69
2022-11-23T07:43:00.714Z,97717.59
2022-11-23T07:45:28.356Z,97722.91
2022-11-23T07:48:00.186Z,97710.44
2022-11-23T07:50:28.117Z,97715.06
2022-11-23T07:52:57.098Z,97707.44
2022-11-23T07:55:25.060Z,97706.66
2022-11-23T07:57:53.455Z,97710.38
2022-11-23T08:00:21.887Z,97709.44
2022-11-23T08:03:19.466Z,97707.09
2022-11-23T08:05:37.333Z,97701.09
2022-11-23T08:08:06.530Z,97712.00
2022-11-23T08:10:38.767Z,97711.50
2022-11-23T08:13:09.599Z,97701.63
2022-11-23T08:15:37.362Z,97705.16
2022-11-23T08:18:05.578Z,97707.41
2022-11-23T08:20:34.479Z,97684.34
2022-11-23T08:23:02.110Z,97694.31
2022-11-23T08:25:31.322Z,97699.06
2022-11-23T08:27:59.721Z,97697.50
2022-11-23T08:30:28.549Z,97697.31
2022-11-23T08:32:56.325Z,97712.72
2022-11-23T08:35:24.297Z,97713.06
2022-11-23T08:37:51.884Z,97714.91
2022-11-23T08:40:25.065Z,97719.16
2022-11-23T08:42:54.817Z,97721.50
2022-11-23T08:45:22.515Z,97719.09
2022-11-23T08:47:50.863Z,97725.97
2022-11-23T08:50:18.966Z,97718.78
2022-11-23T08:52:46.554Z,97729.91
2022-11-23T08:55:14.358Z,97716.91
2022-11-23T08:57:42.028Z,97723.03
2022-11-23T09:00:11.979Z,97714.78
2022-11-23T09:02:39.613Z,97698.22
2022-11-23T09:05:07.688Z,97719.09
2022-11-23T09:07:35.385Z,97720.41
2022-11-23T09:10:03.122Z,97718.50
2022-11-23T09:12:30.679Z,97721.03
2022-11-23T09:14:58.336Z,97714.78
2022-11-23T09:17:27.346Z,97717.28
2022-11-23T09:19:54.963Z,97723.19
2022-11-23T09:22:22.568Z,97724.22
2022-11-23T09:24:50.194Z,97723.88
2022-11-23T09:27:18.085Z,97714.50
2022-11-23T09:29:45.737Z,97725.31
2022-11-23T09:32:13.343Z,97724.38
2022-11-23T09:34:42.366Z,97730.28
2022-11-23T09:37:09.962Z,97719.97
2022-11-23T09:39:37.558Z,97732.81
2022-11-23T09:42:13.408Z,97734.41
2022-11-23T09:44:55.382Z,97732.91
2022-11-23T09:47:34.540Z,97729.06
2022-11-23T09:50:12.164Z,97727.94
2022-11-23T09:52:43.141Z,97726.53
2022-11-23T09:55:15.899Z,97730.75
2022-11-23T09:57:45.237Z,97722.59
2022-11-23T10:00:18.673Z,97728.84
2022-11-23T10:02:46.274Z,97725.75
2022-11-23T10:05:19.171Z,97721.22
2022-11-23T10:07:58.225Z,97724.06
2022-11-23T10:10:34.804Z,97728.41
2022-11-23T10:13:08.653Z,97719.16
2022-11-23T10:15:40.433Z,97717.19
2022-11-23T10:18:22.756Z,97712.72
2022-11-23T10:20:57.145Z,97717.88
2022-11-23T10:23:36.339Z,97712.00
2022-11-23T10:26:03.892Z,97712.25
2022-11-23T10:28:33.240Z,97711.44
2022-11-23T10:31:06.111Z,97707.59
2022-11-23T10:33:38.958Z,97703.69
2022-11-23T10:36:11.041Z,97697.28
2022-11-23T10:38:38.668Z,97704.00
2022-11-23T10:41:10.086Z,97691.16
2022-11-23T10:43:42.985Z,97674.03
2022-11-23T10:46:31.900Z,97697.44
2022-11-23T10:49:11.791Z,97680.91
2022-11-23T10:51:40.763Z,97677.38
2022-11-23T10:54:19.604Z,97698.78
2022-11-23T10:56:47.989Z,97672.63
2022-11-23T10:59:27.862Z,97665.75
2022-11-23T11:02:01.960Z,97654.75
2022-11-23T11:04:29.827Z,97680.25
2022-11-23T11:07:20.177Z,97680.78
2022-11-23T11:09:51.326Z,97657.00
2022-11-23T11:12:19.312Z,97656.16
2022-11-23T11:14:59.372Z,97638.94
2022-11-23T11:17:34.702Z,97649.47
2022-11-23T11:20:23.415Z,97631.44
2022-11-23T11:22:52.457Z,97625.66
2022-11-23T11:25:29.843Z,97619.13
2022-11-23T11:27:57.919Z,97644.41
2022-11-23T11:30:26.537Z,97609.09
2022-11-23T11:32:57.656Z,97606.38
2022-11-23T11:35:27.699Z,97611.00
2022-11-23T11:37:59.046Z,97591.72
2022-11-23T11:40:31.031Z,97594.22
2022-11-23T11:43:00.559Z,97589.28
2022-11-23T11:45:33.134Z,97604.66
2022-11-23T11:48:04.575Z,97575.16
2022-11-23T11:50:35.072Z,97591.50
2022-11-23T11:53:08.217Z,97561.69
2022-11-23T11:55:46.787Z,97594.00
2022-11-23T11:58:17.149Z,97585.91
2022-11-23T12:00:45.417Z,97561.78
2022-11-23T12:03:21.190Z,97601.47
2022-11-23T12:05:51.218Z,97602.25
2022-11-23T12:08:23.501Z,97597.06
2022-11-23T12:10:52.546Z,97581.59
2022-11-23T12:13:22.236Z,97599.72
2022-11-23T12:15:54.210Z,97548.25
2022-11-23T12:18:41.439Z,97578.84
2022-11-23T12:21:22.051Z,97574.81
2022-11-23T12:23:57.778Z,97561.34
2022-11-23T12:26:28.247Z,97556.69
2022-11-23T12:29:08.487Z,97547.34
2022-11-23T12:31:42.139Z,97558.41
2022-11-23T12:34:25.392Z,97557.66
2022-11-23T12:37:15.477Z,97576.38
2022-11-23T12:40:05.206Z,97557.97
2022-11-23T12:42:40.508Z,97557.34
2022-11-23T12:45:20.129Z,97568.28
2022-11-23T12:47:56.383Z,97575.75
2022-11-23T12:50:30.395Z,97579.38
2022-11-23T12:53:06.222Z,97550.78
2022-11-23T12:55:41.875Z,97538.06
2022-11-23T12:58:15.610Z,97549.00
2022-11-23T13:00:47.133Z,97571.06
2022-11-23T13:03:53.305Z,97539.00
2022-11-23T13:06:33.347Z,97568.31
2022-11-23T13:09:33.727Z,97539.84
2022-11-23T13:12:16.223Z,97559.47
2022-11-23T13:14:49.751Z,97540.38
2022-11-23T13:17:32.264Z,97547.09
2022-11-23T13:20:31.895Z,97527.84
2022-11-23T13:22:59.695Z,97548.50
2022-11-23T13:25:28.969Z,97540.16
2022-11-23T13:28:03.161Z,97496.22
2022-11-23T13:31:14.047Z,97506.53
2022-11-23T13:33:35.773Z,97528.88
2022-11-23T13:36:11.220Z,97525.09
2022-11-23T13:38:42.552Z,97513.28
2022-11-23T13:41:46.788Z,97522.88
2022-11-23T13:44:21.119Z,97519.94
2022-11-23T13:46:58.320Z,97513.91
2022-11-23T13:49:33.924Z,97489.88
2022-11-23T13:52:28.509Z,97502.66
2022-11-23T13:55:04.036Z,97502.09
2022-11-23T13:57:35.194Z,97492.28
2022-11-23T14:00:40.406Z,97514.59
2022-11-23T14:03:48.873Z,97502.22
2022-11-23T14:06:29.854Z,97476.59
2022-11-23T14:09:02.822Z,97501.31
2022-11-23T14:11:31.007Z,97482.97
2022-11-23T14:14:01.873Z,97488.41
2022-11-23T14:16:57.398Z,97462.34
2022-11-23T14:19:29.443Z,97484.91
2022-11-23T14:22:03.557Z,97471.72
2022-11-23T14:24:51.471Z,97496.38
2022-11-23T14:27:49.183Z,97456.94
2022-11-23T14:30:39.894Z,97496.81
2022-11-23T14:33:33.111Z,97496.47
2022-11-23T14:36:30.475Z,97479.19
2022-11-23T14:39:43.889Z,97496.25
2022-11-23T14:42:26.454Z,97503.56
2022-11-23T14:44:55.268Z,97486.47
2022-11-23T14:47:29.935Z,97475.41
2022-11-23T14:49:58.054Z,97428.00
2022-11-23T14:52:28.423Z,97490.16
2022-11-23T14:54:57.716Z,97475.34
2022-11-23T14:57:28.745Z,97473.28
2022-11-23T14:59:59.423Z,97475.53
2022-11-23T15:02:33.812Z,97501.69
2022-11-23T15:05:06.467Z,97480.59
2022-11-23T15:07:44.977Z,97483.31
2022-11-23T15:10:24.795Z,97514.25
2022-11-23T15:12:52.478Z,97512.19
2022-11-23T15:15:21.910Z,97509.09
2022-11-23T15:17:53.602Z,97512.19
2022-11-23T15:20:21.765Z,97484.44
2022-11-23T15:22:51.028Z,97487.16
2022-11-23T15:25:19.781Z,97497.84
2022-11-23T15:27:49.099Z,97483.69
2022-11-23T15:30:19.289Z,97487.81
2022-11-23T15:32:56.387Z,97489.41
2022-11-23T15:35:26.077Z,97494.75
2022-11-23T15:37:55.885Z,97489.22
2022-11-23T15:40:24.708Z,97499.91
2022-11-23T15:42:52.563Z,97520.72
2022-11-23T15:45:36.956Z,97511.53
2022-11-23T15:48:06.100Z,97526.81
2022-11-23T15:50:34.377Z,97511.25
2022-11-23T15:53:07.548Z,97526.34
2022-11-23T15:55:36.056Z,97514.63
2022-11-23T15:58:07.669Z,97524.00
2022-11-23T16:00:35.625Z,97540.13
2022-11-23T16:03:34.453Z,97539.84
2022-11-23T16:06:19.740Z,97543.22
2022-11-23T16:08:48.734Z,97547.81
2022-11-23T16:11:32.458Z,97549.69
2022-11-23T16:14:21.134Z,97554.38
2022-11-23T16:17:08.888Z,97554.09
2022-11-23T16:19:40.209Z,97564.97
2022-11-23T16:22:26.742Z,97567.22
2022-11-23T16:25:05.144Z,97569.94
2022-11-23T16:27:39.373Z,97581.72
2022-11-23T16:30:28.125Z,97589.38
2022-11-23T16:33:08.482Z,97594.25
2022-11-23T16:35:37.363Z,97593.38
2022-11-23T16:38:07.142Z,97605.19
2022-11-23T16:40:48.257Z,97609.59
2022-11-23T16:43:28.919Z,97618.59
2022-11-23T16:46:04.551Z,97614.91
2022-11-23T16:48:45.175Z,97628.16
2022-11-23T16:51:22.582Z,97629.59
2022-11-23T16:56:55.685Z,97633.94
2022-11-23T16:59:24.129Z,97635.38
2022-11-23T17:02:02.587Z,97637.06
2022-11-23T17:04:35.238Z,97639.28
2022-11-23T17:07:13.431Z,97655.84
2022-11-23T17:09:48.513Z,97662.53
2022-11-23T17:12:32.684Z,97659.34
2022-11-23T17:15:09.394Z,97670.84
2022-11-23T17:17:41.480Z,97666.44
2022-11-23T17:20:20.248Z,97678.94
2022-11-23T17:22:53.578Z,97680.88
2022-11-23T17:25:25.798Z,97684.75
2022-11-23T17:28:00.530Z,97685.84
2022-11-23T17:30:45.474Z,97694.06
2022-11-23T17:33:20.021Z,97689.31
2022-11-23T17:35:49.606Z,97693.28
2022-11-23T17:38:18.415Z,97696.06
2022-11-23T17:40:46.070Z,97695.63
2022-11-23T17:43:15.959Z,97693.34
2022-11-23T17:45:44.089Z,97699.44
2022-11-23T17:48:12.850Z,97698.00
2022-11-23T17:50:40.527Z,97701.47
2022-11-23T17:53:08.172Z,97710.41
2022-11-23T17:55:35.805Z,97707.88
2022-11-23T17:58:03.524Z,97711.09
2022-11-23T18:00:32.901Z,97714.44
2022-11-23T18:03:00.679Z,97724.44
2022-11-23T18:05:29.844Z,97726.34
2022-11-23T18:07:57.600Z,97723.75
2022-11-23T18:10:25.365Z,97728.75
2022-11-23T18:12:53.048Z,97734.47
2022-11-23T18:15:20.724Z,97736.31
2022-11-23T18:17:50.067Z,97736.31
2022-11-23T18:20:18.049Z,97738.25
2022-11-23T18:22:45.664Z,97750.03
2022-11-23T18:25:13.249Z,97756.66
2022-11-23T18:27:40.939Z,97756.50
2022-11-23T18:30:09.450Z,97756.72
2022-11-23T18:32:37.228Z,97761.19
2022-11-23T18:35:07.866Z,97758.56
2022-11-23T18:37:35.666Z,97759.72
2022-11-23T18:40:03.514Z,97762.72
2022-11-23T18:42:31.165Z,97757.97
2022-11-23T18:44:58.835Z,97774.13
2022-11-23T18:47:26.581Z,97774.44
2022-11-23T18:49:54.468Z,97777.53
2022-11-23T18:52:23.803Z,97777.38
2022-11-23T18:54:52.004Z,97785.47
2022-11-23T18:57:19.639Z,97788.22
2022-11-23T18:59:57.855Z,97787.91
2022-11-23T19:02:26.416Z,97796.38
2022-11-23T19:04:53.936Z,97798.00
2022-11-23T19:07:26.839Z,97809.25
2022-11-23T19:09:55.212Z,97797.69
2022-11-23T19:12:22.972Z,97807.56
2022-11-23T19:14:50.660Z,97803.63
2022-11-23T19:17:18.423Z,97809.94
2022-11-23T19:19:46.072Z,97814.56
2022-11-23T19:22:13.596Z,97809.72
2022-11-23T19:24:42.614Z,97799.31
2022-11-23T19:27:10.181Z,97797.47
2022-11-23T19:29:38.253Z,97824.66
2022-11-23T19:32:06.703Z,97828.13
2022-11-23T19:34:34.967Z,97821.56
2022-11-23T19:37:02.634Z,97842.56
2022-11-23T19:39:30.491Z,97826.63
2022-11-23T19:41:59.773Z,97849.72
2022-11-23T19:44:27.438Z,97837.59
2022-11-23T19:46:55.253Z,97864.66
2022-11-23T19:49:22.906Z,97847.44
2022-11-23T19:51:52.545Z,97849.06
2022-11-23T19:54:20.165Z,97873.09
2022-11-23T19:56:47.910Z,97892.94
2022-11-23T19:59:16.935Z,97891.06
2022-11-23T20:01:44.690Z,97886.31
2022-11-23T20:04:12.797Z,97878.66
2022-11-23T20:06:42.357Z,97890.34
2022-11-23T20:09:11.652Z,97904.34
2022-11-23T20:11:40.743Z,97901.56
2022-11-23T20:14:09.002Z,97911.81
2022-11-23T20:16:38.059Z,97904.97
2022-11-23T20:19:07.574Z,97913.88
2022-11-23T20:21:35.478Z,97913.59
2022-11-23T20:24:05.896Z,97926.69
2022-11-23T20:26:33.957Z,97930.41
2022-11-23T20:29:01.649Z,97938.41
2022-11-23T20:31:30.717Z,97933.03
2022-11-23T20:33:59.908Z,97929.06
2022-11-23T20:36:29.758Z,97956.44
2022-11-23T20:38:57.677Z,97957.22
2022-11-23T20:41:27.216Z,97962.53
2022-11-23T20:43:56.260Z,97970.63
2022-11-23T20:46:46.078Z,97981.31
2022-11-23T20:49:13.334Z,97984.13
2022-11-23T20:51:40.951Z,97984.38
2022-11-23T20:54:09.398Z,97991.06
2022-11-23T20:56:39.014Z,97999.63
2022-11-23T20:59:06.623Z,98009.50
2022-11-23T21:01:35.989Z,98004.34
2022-11-23T21:04:03.908Z,98010.28
2022-11-23T21:06:38.419Z,98022.56
2022-11-23T21:09:06.828Z,98024.06
2022-11-23T21:11:52.136Z,97999.81
2022-11-23T21:14:21.602Z,98029.75
2022-11-23T21:16:53.223Z,98031.31
2022-11-23T21:19:22.017Z,98034.00
2022-11-23T21:21:51.458Z,98033.00
2022-11-23T21:24:19.716Z,98034.34
2022-11-23T21:26:47.596Z,98042.19
2022-11-23T21:29:16.634Z,98051.31
2022-11-23T21:31:45.882Z,98057.47
2022-11-23T21:34:18.232Z,98062.50
2022-11-23T21:36:45.807Z,98059.97
2022-11-23T21:39:15.262Z,98070.41
2022-11-23T21:41:43.828Z,98072.84
2022-11-23T21:44:12.171Z,98068.38
2022-11-23T21:46:41.086Z,98080.31
2022-11-23T21:49:09.265Z,98072.72
2022-11-23T21:51:38.584Z,98078.84
2022-11-23T21:54:07.533Z,98082.88
2022-11-23T21:56:36.621Z,98085.06
2022-11-23T21:59:04.323Z,98090.84
2022-11-23T22:01:33.700Z,98087.38
2022-11-23T22:04:02.735Z,98096.38
2022-11-23T22:06:30.792Z,98092.91
2022-11-23T22:08:59.779Z,98105.28
2022-11-23T22:11:28.743Z,98109.06
2022-11-23T22:13:59.660Z,98102.59
2022-11-23T22:16:28.562Z,98105.41
2022-11-23T22:18:56.816Z,98100.19
2022-11-23T22:21:25.768Z,98107.91
2022-11-23T22:23:53.612Z,98114.63
2022-11-23T22:26:22.419Z,98111.16
2022-11-23T22:28:51.749Z,98108.63
2022-11-23T22:31:23.176Z,98132.72
2022-11-23T22:33:52.083Z,98137.81
2022-11-23T22:36:21.527Z,98131.28
2022-11-23T22:38:49.694Z,98126.03
2022-11-23T22:41:18.599Z,98135.34
2022-11-23T22:43:47.468Z,98136.06
2022-11-23T22:46:17.587Z,98129.97
2022-11-23T22:48:48.963Z,98136.44
2022-11-23T22:51:18.669Z,98140.56
2022-11-23T22:53:46.545Z,98142.47
2022-11-23T22:56:16.302Z,98152.94
2022-11-23T22:58:44.610Z,98147.13
2022-11-23T23:01:13.962Z,98145.63
2022-11-23T23:03:42.014Z,98152.81
2022-11-23T23:06:16.656Z,98154.44
2022-11-23T23:08:45.479Z,98157.22
2022-11-23T23:11:14.128Z,98147.81
2022-11-23T23:13:42.185Z,98165.88
2022-11-23T23:16:12.677Z,98180.63
2022-11-23T23:18:40.728Z,98183.34
2022-11-23T23:21:10.890Z,98171.47
2022-11-23T23:23:54.495Z,98179.13
2022-11-23T23:26:30.955Z,98179.88
2022-11-23T23:29:04.154Z,98187.19
2022-11-23T23:31:42.793Z,98187.06
2022-11-23T23:34:16.147Z,98179.84
2022-11-23T23:37:00.351Z,98185.84
2022-11-23T23:39:50.027Z,98201.66
2022-11-23T23:42:23.674Z,98192.44
2022-11-23T23:44:53.344Z,98203.56
2022-11-23T23:47:28.154Z,98206.06
2022-11-23T23:50:01.808Z,98201.06
2022-11-23T23:52:33.990Z,98201.13
2022-11-23T23:55:07.326Z,98195.13
2022-11-23T23:57:42.442Z,98191.59
